createdAt,value
2018-04-29T00:01:57.180Z,31.20
2018-04-29T00:04:25.519Z,32.00
2018-04-29T00:06:53.011Z,31.40
2018-04-29T00:09:20.507Z,31.40
2018-04-29T00:11:48.748Z,31.60
2018-04-29T00:14:16.260Z,31.70
2018-04-29T00:16:43.732Z,31.70
2018-04-29T00:19:11.247Z,31.70
2018-04-29T00:21:38.758Z,31.70
2018-04-29T00:24:06.259Z,31.80
2018-04-29T00:26:34.543Z,32.00
2018-04-29T00:29:02.061Z,32.00
2018-04-29T00:31:29.623Z,31.90
2018-04-29T00:33:57.111Z,32.00
2018-04-29T00:36:24.613Z,32.00
2018-04-29T00:38:52.900Z,32.30
2018-04-29T00:41:20.424Z,32.40
2018-04-29T00:43:47.903Z,32.30
2018-04-29T00:46:15.406Z,32.40
2018-04-29T00:48:42.891Z,32.50
2018-04-29T00:51:10.428Z,32.50
2018-04-29T00:53:37.899Z,32.60
2018-04-29T00:56:05.394Z,32.80
2018-04-29T00:58:32.868Z,32.80
2018-04-29T01:01:00.394Z,33.00
2018-04-29T01:03:27.898Z,33.00
2018-04-29T01:05:55.533Z,33.10
2018-04-29T01:08:22.969Z,33.20
2018-04-29T01:10:50.460Z,33.30
2018-04-29T01:13:18.704Z,33.00
2018-04-29T01:15:46.203Z,33.60
2018-04-29T01:18:13.679Z,33.50
2018-04-29T01:20:41.171Z,33.60
2018-04-29T01:23:09.435Z,33.60
2018-04-29T01:25:36.920Z,33.60
2018-04-29T01:28:05.156Z,33.60
2018-04-29T01:30:32.676Z,33.70
2018-04-29T01:33:00.156Z,33.60
2018-04-29T01:35:27.693Z,33.60
2018-04-29T01:37:55.161Z,33.70
2018-04-29T01:40:22.717Z,33.70
2018-04-29T01:42:50.179Z,33.80
2018-04-29T01:45:17.676Z,33.80
2018-04-29T01:47:45.161Z,33.90
2018-04-29T01:50:12.656Z,34.00
2018-04-29T01:52:40.892Z,34.30
2018-04-29T01:55:08.455Z,34.30
2018-04-29T01:57:35.857Z,34.20
2018-04-29T02:00:03.339Z,34.90
2018-04-29T02:02:30.812Z,34.40
2018-04-29T02:04:58.323Z,34.40
2018-04-29T02:07:25.808Z,34.50
2018-04-29T02:09:53.319Z,34.40
2018-04-29T02:12:20.814Z,34.50
2018-04-29T02:14:49.063Z,34.60
2018-04-29T02:17:16.547Z,34.70
2018-04-29T02:19:44.038Z,34.60
2018-04-29T02:22:11.522Z,34.70
2018-04-29T02:24:39.772Z,34.90
2018-04-29T02:27:07.231Z,35.00
2018-04-29T02:29:34.711Z,34.80
2018-04-29T02:32:02.203Z,35.00
2018-04-29T02:34:29.684Z,34.90
2018-04-29T02:36:57.938Z,35.70
2018-04-29T02:39:25.413Z,35.10
2018-04-29T02:41:53.733Z,35.20
2018-04-29T02:44:21.998Z,35.20
2018-04-29T02:46:49.516Z,35.30
2018-04-29T02:49:17.403Z,35.30
2018-04-29T02:51:44.944Z,35.30
2018-04-29T02:54:12.416Z,35.40
2018-04-29T02:56:40.689Z,35.60
2018-04-29T02:59:08.155Z,35.60
2018-04-29T03:01:35.660Z,35.60
2018-04-29T03:04:04.016Z,35.70
2018-04-29T03:06:33.959Z,35.80
2018-04-29T03:09:01.784Z,35.90
2018-04-29T03:11:29.384Z,35.90
2018-04-29T03:13:56.872Z,36.00
2018-04-29T03:16:24.357Z,36.00
2018-04-29T03:18:52.612Z,36.20
2018-04-29T03:21:20.904Z,36.30
2018-04-29T03:23:49.203Z,36.30
2018-04-29T03:26:16.705Z,36.40
2018-04-29T03:28:44.177Z,36.30
2018-04-29T03:31:11.653Z,36.50
2018-04-29T03:33:39.890Z,36.70
2018-04-29T03:36:07.388Z,36.80
2018-04-29T03:38:34.856Z,36.70
2018-04-29T03:41:02.350Z,36.70
2018-04-29T03:43:30.651Z,37.00
2018-04-29T03:45:58.901Z,37.00
2018-04-29T03:48:26.380Z,37.10
2018-04-29T03:50:53.864Z,37.00
2018-04-29T03:53:21.406Z,37.10
2018-04-29T03:55:48.893Z,37.10
2018-04-29T03:58:28.268Z,37.10
2018-04-29T04:01:08.187Z,37.20
2018-04-29T04:06:39.470Z,39.30
2018-04-29T04:09:06.934Z,37.20
2018-04-29T04:11:34.437Z,37.40
2018-04-29T04:14:01.925Z,37.60
2018-04-29T04:16:29.421Z,37.60
2018-04-29T04:18:56.905Z,37.80
2018-04-29T04:21:24.387Z,37.80
2018-04-29T04:23:51.859Z,37.90
2018-04-29T04:26:19.385Z,38.10
2018-04-29T04:28:46.920Z,38.20
2018-04-29T04:31:14.407Z,38.30
2018-04-29T04:33:41.880Z,38.30
2018-04-29T04:36:10.137Z,38.50
2018-04-29T04:38:37.612Z,38.70
2018-04-29T04:41:05.094Z,38.50
2018-04-29T04:43:32.578Z,38.50
2018-04-29T04:46:00.077Z,38.50
2018-04-29T04:48:28.320Z,38.60
2018-04-29T04:50:55.806Z,38.60
2018-04-29T04:53:23.296Z,38.60
2018-04-29T04:55:50.801Z,38.60
2018-04-29T04:58:18.300Z,38.70
2018-04-29T05:00:45.875Z,38.80
2018-04-29T05:03:13.630Z,38.90
2018-04-29T05:05:41.123Z,39.00
2018-04-29T05:08:08.591Z,38.90
2018-04-29T05:10:36.068Z,39.10
2018-04-29T05:13:03.555Z,39.10
2018-04-29T05:15:31.031Z,39.20
2018-04-29T05:17:58.566Z,39.20
2018-04-29T05:20:26.023Z,39.30
2018-04-29T05:22:53.502Z,39.30
2018-04-29T05:25:21.019Z,39.40
2018-04-29T05:27:48.502Z,39.60
2018-04-29T05:30:15.963Z,39.80
2018-04-29T05:32:43.445Z,39.80
2018-04-29T05:35:10.915Z,40.00
2018-04-29T05:37:38.401Z,40.20
2018-04-29T05:40:06.644Z,40.60
2018-04-29T05:42:34.119Z,40.70
2018-04-29T05:45:01.592Z,40.80
2018-04-29T05:47:29.856Z,41.20
2018-04-29T05:49:57.406Z,41.20
2018-04-29T05:52:24.858Z,41.20
2018-04-29T05:54:53.101Z,41.30
2018-04-29T05:57:20.578Z,41.40
2018-04-29T05:59:48.044Z,41.00
2018-04-29T06:02:15.528Z,40.90
2018-04-29T06:04:42.996Z,40.80
2018-04-29T06:07:10.498Z,41.40
2018-04-29T06:09:39.527Z,40.90
2018-04-29T06:12:07.031Z,41.00
2018-04-29T06:14:34.496Z,40.70
2018-04-29T06:17:02.016Z,40.80
2018-04-29T06:19:29.498Z,40.80
2018-04-29T06:21:57.812Z,40.90
2018-04-29T06:24:25.284Z,40.90
2018-04-29T06:26:52.789Z,40.80
2018-04-29T06:29:20.261Z,40.80
2018-04-29T06:31:47.739Z,40.80
2018-04-29T06:34:15.198Z,40.70
2018-04-29T06:36:42.708Z,40.60
2018-04-29T06:39:10.165Z,40.70
2018-04-29T06:41:38.423Z,40.90
2018-04-29T06:44:05.923Z,41.00
2018-04-29T06:46:33.416Z,41.00
2018-04-29T06:49:01.680Z,41.60
2018-04-29T06:51:29.160Z,41.70
2018-04-29T06:53:56.711Z,41.90
2018-04-29T06:56:24.203Z,42.10
2018-04-29T06:58:51.676Z,42.50
2018-04-29T07:01:19.163Z,42.90
2018-04-29T07:03:47.407Z,43.40
2018-04-29T07:06:14.964Z,43.60
2018-04-29T07:08:42.442Z,43.90
2018-04-29T07:11:09.912Z,44.30
2018-04-29T07:13:37.396Z,44.80
2018-04-29T07:16:04.879Z,46.10
2018-04-29T07:18:32.495Z,46.20
2018-04-29T07:21:00.721Z,46.40
2018-04-29T07:23:28.305Z,46.40
2018-04-29T07:25:56.682Z,44.60
2018-04-29T07:28:24.175Z,44.60
2018-04-29T07:30:51.642Z,44.40
2018-04-29T07:33:19.116Z,44.00
2018-04-29T07:35:46.599Z,43.70
2018-04-29T07:38:14.082Z,44.50
2018-04-29T07:40:41.563Z,44.70
2018-04-29T07:43:09.831Z,45.00
2018-04-29T07:45:37.303Z,45.10
2018-04-29T07:48:04.813Z,44.70
2018-04-29T07:50:32.312Z,44.30
2018-04-29T07:52:59.860Z,43.90
2018-04-29T07:55:27.364Z,43.70
2018-04-29T07:57:54.889Z,44.10
2018-04-29T08:00:23.185Z,44.90
2018-04-29T08:02:51.437Z,45.00
2018-04-29T08:05:18.910Z,45.00
2018-04-29T08:07:46.395Z,44.50
2018-04-29T08:10:14.630Z,43.40
2018-04-29T08:12:42.203Z,43.30
2018-04-29T08:15:09.674Z,43.30
2018-04-29T08:17:37.508Z,42.80
2018-04-29T08:20:04.996Z,42.20
2018-04-29T08:22:33.276Z,41.00
2018-04-29T08:25:01.531Z,40.50
2018-04-29T08:27:31.212Z,40.50
2018-04-29T08:29:59.971Z,40.10
2018-04-29T08:32:27.728Z,39.80
2018-04-29T08:34:55.192Z,40.40
2018-04-29T08:37:22.686Z,39.90
2018-04-29T08:39:51.660Z,42.10
2018-04-29T08:42:19.146Z,42.10
2018-04-29T08:44:46.661Z,42.90
2018-04-29T08:47:14.265Z,42.90
2018-04-29T08:49:41.750Z,43.50
2018-04-29T08:52:09.280Z,45.20
2018-04-29T08:54:37.534Z,45.90
2018-04-29T08:57:05.068Z,45.80
2018-04-29T08:59:32.619Z,45.50
2018-04-29T09:02:00.891Z,43.30
2018-04-29T09:04:28.427Z,43.10
2018-04-29T09:06:55.896Z,42.10
2018-04-29T09:09:23.383Z,41.40
2018-04-29T09:11:50.865Z,40.40
2018-04-29T09:14:18.459Z,39.40
2018-04-29T09:16:47.784Z,37.20
2018-04-29T09:19:15.243Z,37.60
2018-04-29T09:21:43.499Z,37.20
2018-04-29T09:24:10.986Z,37.20
2018-04-29T09:26:38.595Z,37.10
2018-04-29T09:29:07.271Z,36.80
2018-04-29T09:31:36.527Z,36.90
2018-04-29T09:34:04.072Z,36.90
2018-04-29T09:36:32.382Z,37.60
2018-04-29T09:38:59.878Z,37.50
2018-04-29T09:41:27.343Z,38.00
2018-04-29T09:43:54.819Z,37.60
2018-04-29T09:46:22.286Z,37.10
2018-04-29T09:48:49.883Z,37.50
2018-04-29T09:51:17.391Z,38.30
2018-04-29T09:53:44.927Z,38.90
2018-04-29T09:56:13.167Z,39.50
2018-04-29T09:58:40.663Z,39.40
2018-04-29T10:01:13.931Z,39.70
2018-04-29T10:03:41.370Z,39.40
2018-04-29T10:06:08.838Z,39.10
2018-04-29T10:08:36.329Z,38.90
2018-04-29T10:11:03.878Z,38.80
2018-04-29T10:13:31.417Z,38.80
2018-04-29T10:15:58.879Z,37.80
2018-04-29T10:18:26.374Z,37.00
2018-04-29T10:20:53.842Z,36.30
2018-04-29T10:23:21.339Z,35.20
2018-04-29T10:25:48.863Z,34.20
2018-04-29T10:28:16.432Z,33.40
2018-04-29T10:30:43.915Z,32.90
2018-04-29T10:33:11.391Z,32.20
2018-04-29T10:35:38.868Z,31.70
2018-04-29T10:38:06.356Z,31.00
2018-04-29T10:40:33.885Z,30.60
2018-04-29T10:43:02.139Z,29.90
2018-04-29T10:45:29.610Z,29.80
2018-04-29T10:47:57.140Z,29.60
2018-04-29T10:50:24.628Z,29.30
2018-04-29T10:52:52.129Z,28.80
2018-04-29T10:55:19.582Z,28.50
2018-04-29T10:57:47.860Z,28.20
2018-04-29T11:00:15.437Z,28.10
2018-04-29T11:02:42.898Z,28.00
2018-04-29T11:05:10.380Z,27.70
2018-04-29T11:07:38.903Z,27.50
2018-04-29T11:10:06.400Z,27.20
2018-04-29T11:12:34.647Z,26.90
2018-04-29T11:15:02.128Z,26.80
2018-04-29T11:17:29.651Z,26.90
2018-04-29T11:19:57.176Z,26.40
2018-04-29T11:22:24.760Z,26.30
2018-04-29T11:24:52.199Z,26.10
2018-04-29T11:27:19.678Z,25.80
2018-04-29T11:29:47.223Z,25.80
2018-04-29T11:32:15.051Z,25.60
2018-04-29T11:34:42.562Z,25.50
2018-04-29T11:37:10.801Z,25.20
2018-04-29T11:39:38.352Z,25.00
2018-04-29T11:42:05.855Z,24.90
2018-04-29T11:44:33.367Z,24.80
2018-04-29T11:47:00.853Z,24.50
2018-04-29T11:49:29.243Z,24.20
2018-04-29T11:51:56.720Z,23.90
2018-04-29T11:54:24.215Z,23.70
2018-04-29T11:56:51.689Z,23.60
2018-04-29T11:59:19.185Z,23.80
2018-04-29T12:01:47.579Z,23.50
2018-04-29T12:04:15.133Z,23.40
2018-04-29T12:06:42.797Z,23.40
2018-04-29T12:09:10.348Z,23.10
2018-04-29T12:11:37.811Z,23.00
2018-04-29T12:14:05.328Z,22.80
2018-04-29T12:16:32.896Z,22.60
2018-04-29T12:19:00.341Z,22.20
2018-04-29T12:21:27.808Z,22.20
2018-04-29T12:23:55.279Z,22.00
2018-04-29T12:26:22.790Z,21.80
2018-04-29T12:28:50.275Z,21.60
2018-04-29T12:31:18.869Z,21.30
2018-04-29T12:33:46.504Z,21.20
2018-04-29T12:36:14.018Z,21.10
2018-04-29T12:38:42.337Z,20.80
2018-04-29T12:41:09.829Z,20.80
2018-04-29T12:43:37.330Z,20.70
2018-04-29T12:46:04.824Z,20.60
2018-04-29T12:48:33.079Z,20.30
2018-04-29T12:51:01.376Z,20.20
2018-04-29T12:53:29.205Z,20.10
2018-04-29T12:55:56.697Z,20.00
2018-04-29T12:58:24.153Z,19.90
2018-04-29T13:00:51.849Z,19.70
2018-04-29T13:03:19.384Z,19.60
2018-04-29T13:05:47.001Z,19.40
2018-04-29T13:08:14.488Z,19.20
2018-04-29T13:10:41.980Z,19.40
2018-04-29T13:13:09.492Z,19.40
2018-04-29T13:15:37.927Z,18.90
2018-04-29T13:18:06.201Z,18.50
2018-04-29T13:20:33.773Z,18.40
2018-04-29T13:23:01.241Z,18.40
2018-04-29T13:25:28.721Z,18.20
2018-04-29T13:27:56.196Z,18.20
2018-04-29T13:30:23.689Z,18.00
2018-04-29T13:32:51.178Z,18.00
2018-04-29T13:35:18.793Z,18.00
2018-04-29T13:37:46.340Z,17.80
2018-04-29T13:40:13.872Z,17.50
2018-04-29T13:42:41.404Z,17.10
2018-04-29T13:45:08.905Z,16.90
2018-04-29T13:47:36.420Z,17.00
2018-04-29T13:50:03.891Z,17.00
2018-04-29T13:52:31.404Z,17.10
2018-04-29T13:54:58.888Z,17.30
2018-04-29T13:57:26.405Z,17.20
2018-04-29T13:59:53.931Z,17.30
2018-04-29T14:02:22.201Z,17.40
2018-04-29T14:04:49.691Z,17.30
2018-04-29T14:07:17.215Z,17.40
2018-04-29T14:09:44.758Z,17.30
2018-04-29T14:12:14.464Z,17.30
2018-04-29T14:14:42.176Z,17.20
2018-04-29T14:17:09.714Z,17.10
2018-04-29T14:19:37.184Z,16.90
2018-04-29T14:22:04.696Z,16.70
2018-04-29T14:24:32.200Z,16.70
2018-04-29T14:26:59.704Z,16.60
2018-04-29T14:29:27.943Z,16.70
2018-04-29T14:31:55.428Z,16.70
2018-04-29T14:34:22.908Z,16.80
2018-04-29T14:36:50.415Z,16.70
2018-04-29T14:39:18.744Z,16.50
2018-04-29T14:41:46.251Z,16.40
2018-04-29T14:44:13.740Z,16.60
2018-04-29T14:46:42.026Z,16.70
2018-04-29T14:49:09.526Z,16.70
2018-04-29T14:51:37.043Z,16.70
2018-04-29T14:54:04.524Z,16.80
2018-04-29T14:56:32.009Z,16.70
2018-04-29T14:59:00.288Z,16.80
2018-04-29T15:01:27.813Z,16.80
2018-04-29T15:03:55.304Z,16.80
2018-04-29T15:06:22.780Z,16.50
2018-04-29T15:08:51.070Z,16.10
2018-04-29T15:11:18.574Z,16.10
2018-04-29T15:13:46.083Z,15.90
2018-04-29T15:16:13.669Z,15.90
2018-04-29T15:18:53.058Z,15.90
2018-04-29T15:21:20.504Z,16.10
2018-04-29T15:23:48.008Z,16.30
2018-04-29T15:26:16.287Z,17.30
2018-04-29T15:28:43.858Z,16.80
2018-04-29T15:31:11.331Z,17.10
2018-04-29T15:33:38.818Z,17.40
2018-04-29T15:36:06.291Z,17.80
2018-04-29T15:38:33.766Z,18.10
2018-04-29T15:41:01.995Z,18.70
2018-04-29T15:43:29.492Z,18.70
2018-04-29T15:45:56.963Z,18.90
2018-04-29T15:48:24.448Z,19.60
2018-04-29T15:50:51.925Z,19.30
2018-04-29T15:53:19.491Z,19.50
2018-04-29T15:55:47.029Z,19.70
2018-04-29T15:58:14.570Z,19.90
2018-04-29T16:00:42.056Z,20.20
2018-04-29T16:03:09.548Z,20.30
2018-04-29T16:05:37.026Z,20.50
2018-04-29T16:08:04.507Z,20.60
2018-04-29T16:10:32.005Z,20.60
2018-04-29T16:13:00.261Z,21.30
2018-04-29T16:15:27.751Z,20.90
2018-04-29T16:17:56.021Z,21.10
2018-04-29T16:20:23.489Z,21.00
2018-04-29T16:22:50.975Z,21.10
2018-04-29T16:25:18.442Z,21.20
2018-04-29T16:27:45.939Z,21.30
2018-04-29T16:30:13.468Z,21.30
2018-04-29T16:32:41.739Z,21.50
2018-04-29T16:35:09.228Z,21.40
2018-04-29T16:37:36.807Z,21.50
2018-04-29T16:40:04.311Z,21.60
2018-04-29T16:42:31.788Z,21.60
2018-04-29T16:45:00.045Z,22.30
2018-04-29T16:47:27.544Z,21.90
2018-04-29T16:49:55.044Z,22.00
2018-04-29T16:52:22.517Z,22.10
2018-04-29T16:54:50.024Z,22.30
2018-04-29T16:57:17.544Z,22.40
2018-04-29T16:59:45.815Z,22.80
2018-04-29T17:02:14.087Z,23.00
2018-04-29T17:04:41.642Z,23.00
2018-04-29T17:07:09.108Z,23.20
2018-04-29T17:09:37.427Z,23.50
2018-04-29T17:12:04.894Z,23.50
2018-04-29T17:14:32.394Z,23.50
2018-04-29T17:17:00.686Z,23.80
2018-04-29T17:19:28.130Z,23.90
2018-04-29T17:21:55.612Z,24.00
2018-04-29T17:24:23.091Z,24.10
2018-04-29T17:26:51.335Z,24.40
2018-04-29T17:29:18.922Z,24.40
2018-04-29T17:31:46.329Z,24.50
2018-04-29T17:34:14.577Z,24.70
2018-04-29T17:36:42.037Z,24.80
2018-04-29T17:39:09.527Z,24.80
2018-04-29T17:41:37.003Z,24.90
2018-04-29T17:44:04.515Z,25.00
2018-04-29T17:46:32.014Z,25.00
2018-04-29T17:48:59.507Z,25.10
2018-04-29T17:51:26.980Z,25.20
2018-04-29T17:53:54.447Z,25.20
2018-04-29T17:56:21.930Z,25.20
2018-04-29T17:58:49.409Z,25.40
2018-04-29T18:01:16.906Z,25.40
2018-04-29T18:03:44.440Z,25.50
2018-04-29T18:06:11.934Z,25.60
2018-04-29T18:08:40.183Z,25.70
2018-04-29T18:11:07.727Z,25.80
2018-04-29T18:13:35.214Z,25.80
2018-04-29T18:16:02.699Z,26.40
2018-04-29T18:18:30.160Z,26.00
2018-04-29T18:20:57.647Z,26.00
2018-04-29T18:23:25.131Z,26.10
2018-04-29T18:25:52.614Z,26.20
2018-04-29T18:28:20.152Z,26.20
2018-04-29T18:30:47.647Z,25.90
2018-04-29T18:33:16.001Z,26.40
2018-04-29T18:35:43.480Z,26.50
2018-04-29T18:38:10.956Z,26.60
2018-04-29T18:40:38.445Z,26.70
2018-04-29T18:43:06.060Z,26.80
2018-04-29T18:45:33.552Z,26.90
2018-04-29T18:48:01.043Z,26.90
2018-04-29T18:50:28.549Z,27.00
2018-04-29T18:52:56.089Z,27.10
2018-04-29T18:55:23.605Z,27.20
2018-04-29T18:57:51.876Z,27.50
2018-04-29T19:00:19.425Z,27.50
2018-04-29T19:02:48.502Z,27.50
2018-04-29T19:05:16.024Z,27.60
2018-04-29T19:07:43.953Z,27.70
2018-04-29T19:10:11.920Z,27.80
2018-04-29T19:12:40.173Z,28.00
2018-04-29T19:15:07.650Z,28.00
2018-04-29T19:17:35.137Z,28.50
2018-04-29T19:20:02.600Z,28.40
2018-04-29T19:22:30.075Z,28.50
2018-04-29T19:24:58.379Z,28.40
2018-04-29T19:27:26.661Z,28.40
2018-04-29T19:29:54.191Z,28.50
2018-04-29T19:32:21.676Z,28.50
2018-04-29T19:34:49.263Z,28.60
2018-04-29T19:37:17.142Z,28.60
2018-04-29T19:39:44.738Z,29.20
2018-04-29T19:42:13.017Z,29.00
2018-04-29T19:44:40.501Z,29.00
2018-04-29T19:47:07.994Z,29.00
2018-04-29T19:49:35.496Z,29.10
2018-04-29T19:52:02.976Z,29.10
2018-04-29T19:54:30.937Z,29.30
2018-04-29T19:56:58.426Z,29.30
2018-04-29T19:59:25.921Z,29.30
2018-04-29T20:01:53.403Z,29.40
2018-04-29T20:04:22.197Z,29.60
2018-04-29T20:06:50.459Z,29.60
2018-04-29T20:09:18.027Z,29.60
2018-04-29T20:11:45.524Z,29.70
2018-04-29T20:14:14.386Z,29.70
2018-04-29T20:16:42.077Z,29.80
2018-04-29T20:19:10.867Z,29.80
2018-04-29T20:21:39.234Z,30.00
2018-04-29T20:24:07.212Z,30.00
2018-04-29T20:26:34.693Z,30.00
2018-04-29T20:29:02.220Z,30.00
2018-04-29T20:31:29.805Z,30.00
2018-04-29T20:33:57.340Z,30.10
2018-04-29T20:36:24.837Z,30.10
2018-04-29T20:38:52.320Z,30.20
2018-04-29T20:41:21.432Z,30.40
2018-04-29T20:43:49.007Z,30.40
2018-04-29T20:46:17.577Z,30.50
2018-04-29T20:48:45.194Z,30.50
2018-04-29T20:51:12.691Z,30.40
2018-04-29T20:53:40.231Z,30.60
2018-04-29T20:56:07.736Z,30.60
2018-04-29T20:58:35.217Z,30.70
2018-04-29T21:01:02.712Z,30.70
2018-04-29T21:03:30.196Z,30.70
2018-04-29T21:05:58.452Z,31.50
2018-04-29T21:08:25.953Z,30.90
2018-04-29T21:10:53.459Z,30.80
2018-04-29T21:13:20.950Z,31.10
2018-04-29T21:15:48.464Z,30.90
2018-04-29T21:18:16.727Z,31.00
2018-04-29T21:20:44.228Z,31.10
2018-04-29T21:23:12.480Z,31.10
2018-04-29T21:25:39.975Z,31.10
2018-04-29T21:28:07.475Z,31.10
2018-04-29T21:30:35.749Z,31.20
2018-04-29T21:33:03.264Z,31.20
2018-04-29T21:35:30.743Z,31.80
2018-04-29T21:37:58.234Z,31.30
2018-04-29T21:40:25.711Z,31.30
2018-04-29T21:42:53.167Z,31.30
2018-04-29T21:45:20.711Z,31.30
2018-04-29T21:47:48.199Z,31.30
2018-04-29T21:50:15.773Z,31.40
2018-04-29T21:52:43.247Z,31.40
2018-04-29T21:55:10.756Z,31.50
2018-04-29T21:57:38.241Z,31.50
2018-04-29T22:00:05.746Z,31.60
2018-04-29T22:02:33.332Z,31.60
2018-04-29T22:05:00.826Z,31.60
2018-04-29T22:07:28.316Z,31.60
2018-04-29T22:09:55.802Z,31.60
2018-04-29T22:12:23.358Z,32.20
2018-04-29T22:14:50.887Z,31.60
2018-04-29T22:17:18.426Z,31.60
2018-04-29T22:19:46.687Z,31.70
2018-04-29T22:22:14.155Z,31.70
2018-04-29T22:24:41.665Z,31.70
2018-04-29T22:27:09.136Z,31.70
2018-04-29T22:29:36.651Z,31.70
2018-04-29T22:32:04.124Z,31.70
2018-04-29T22:34:31.603Z,31.70
2018-04-29T22:36:59.093Z,31.70
2018-04-29T22:39:27.346Z,31.70
2018-04-29T22:41:54.816Z,31.60
2018-04-29T22:44:22.309Z,31.60
2018-04-29T22:46:49.791Z,31.60
2018-04-29T22:49:17.271Z,31.60
2018-04-29T22:51:45.637Z,31.60
2018-04-29T22:54:13.107Z,31.60
2018-04-29T22:56:40.588Z,31.60
2018-04-29T22:59:08.100Z,31.60
2018-04-29T23:01:35.589Z,31.60
2018-04-29T23:04:03.112Z,31.60
2018-04-29T23:06:30.570Z,31.60
2018-04-29T23:08:58.061Z,31.60
2018-04-29T23:11:26.295Z,31.50
2018-04-29T23:13:53.800Z,31.50
2018-04-29T23:16:21.296Z,31.60
2018-04-29T23:18:49.543Z,31.60
2018-04-29T23:21:17.044Z,31.60
2018-04-29T23:23:45.307Z,32.20
2018-04-29T23:26:12.782Z,31.60
2018-04-29T23:28:40.251Z,31.50
2018-04-29T23:31:07.731Z,31.70
2018-04-29T23:33:35.204Z,32.00
2018-04-29T23:36:02.693Z,33.30
2018-04-29T23:38:30.928Z,33.30
2018-04-29T23:40:59.184Z,33.30
2018-04-29T23:43:26.668Z,33.40
2018-04-29T23:45:54.192Z,33.60
2018-04-29T23:48:21.647Z,33.90
2018-04-29T23:50:49.151Z,34.30
2018-04-29T23:53:17.404Z,34.00
2018-04-29T23:55:44.900Z,34.20
2018-04-29T23:58:12.394Z,34.30
